• Join FlightAware (Why Join?)
  • Login
  • US Flag 
08:52AM EDT


 

Airport Tracker/Info


-or-


 

Live Flight TrackerFlight Track Log ✈ AFL150 ✈ 29-Apr-2014 ✈ UUEE / SVO - MUHA / HAV

Flight Track Log - Related Links

Times and Time Zones

All times are in EDT time to prevent confusion due to time zone crossing. See the AFL150 flight status page for this flight to view local times or setup timezone preferences in your user account.

Time Position Orientation Groundspeed Altitude Reporting Facility
EDT Latitude Longitude Course Direction KTS MPH feet Rate Location/Type
06:34AM 56.0509 37.0855 309° West  Level FlightAware Approximate
06:35AM 56.1268 36.9151 309° West  Level FlightAware Approximate
06:36AM 56.2025 36.7440 309° West  Level FlightAware Approximate
06:37AM 56.2779 36.5722 308° West  Level FlightAware Approximate
06:38AM 56.3531 36.3997 308° West  Level FlightAware Approximate
06:39AM 56.4281 36.2266 308° West  Level FlightAware Approximate
06:40AM 56.5028 36.0528 308° West  Level FlightAware Approximate
06:41AM 56.5773 35.8783 308° West  Level FlightAware Approximate
06:42AM 56.6515 35.7031 308° West  Level FlightAware Approximate
06:43AM 56.7255 35.5272 308° West  Level FlightAware Approximate
06:44AM 56.7992 35.3507 307° West  Level FlightAware Approximate
06:45AM 56.8727 35.1734 307° West  Level FlightAware Approximate
06:46AM 56.9459 34.9954 307° West  Level FlightAware Approximate
06:47AM 57.0189 34.8168 307° West  Level FlightAware Approximate
06:48AM 57.0916 34.6374 307° West  Level FlightAware Approximate
06:49AM 57.1641 34.4573 307° West  Level FlightAware Approximate
06:50AM 57.2363 34.2766 306° West  Level FlightAware Approximate
06:51AM 57.3071 34.0856 303° West  Level FlightAware Approximate
06:52AM 57.3735 33.8967 303° West  Level FlightAware Approximate
06:53AM 57.4397 33.7071 303° West  Level FlightAware Approximate
06:54AM 57.5055 33.5168 303° West  Level FlightAware Approximate
06:55AM 57.5710 33.3258 303° West  Level FlightAware Approximate
06:56AM 57.6363 33.1342 303° West  Level FlightAware Approximate
06:57AM 57.7012 32.9418 302° West  Level FlightAware Approximate
06:58AM 57.7659 32.7488 302° West  Level FlightAware Approximate
06:59AM 57.8303 32.5551 302° West  Level FlightAware Approximate
07:00AM 57.8944 32.3606 302° West  Level FlightAware Approximate
07:01AM 57.9582 32.1655 302° West  Level FlightAware Approximate
07:02AM 58.0216 31.9697 302° West  Level FlightAware Approximate
07:03AM 58.0848 31.7732 301° West  Level FlightAware Approximate
07:04AM 58.1477 31.5760 301° West  Level FlightAware Approximate
07:05AM 58.2103 31.3781 301° West  Level FlightAware Approximate
07:06AM 58.2725 31.1796 301° West  Level FlightAware Approximate
07:07AM 58.3345 30.9803 301° West  Level FlightAware Approximate
07:08AM 58.3961 30.7803 301° West  Level FlightAware Approximate
07:09AM 58.4575 30.5796 300° West  Level FlightAware Approximate
07:10AM 58.5185 30.3782 300° West  Level FlightAware Approximate
07:11AM 58.5792 30.1761 300° West  Level FlightAware Approximate
07:12AM 58.6396 29.9734 300° West  Level FlightAware Approximate
07:13AM 58.6997 29.7699 300° West  Level FlightAware Approximate
07:14AM 58.7594 29.5657 299° West  Level FlightAware Approximate
07:15AM 58.8188 29.3608 299° West  Level FlightAware Approximate
07:16AM 58.8779 29.1552 299° West  Level FlightAware Approximate
07:17AM 58.9367 28.9489 299° West  Level FlightAware Approximate
07:18AM 58.9951 28.7419 299° West  Level FlightAware Approximate
07:19AM 59.0532 28.5343 299° West  Level FlightAware Approximate
07:20AM 59.1110 28.3259 298° West  Level FlightAware Approximate
07:21AM 59.1684 28.1168 298° West  Level FlightAware Approximate
07:22AM 59.2255 27.9070 298° West  Level FlightAware Approximate
07:23AM 59.2823 27.6965 298° West  Level FlightAware Approximate
07:24AM 59.3387 27.4853 298° West  Level FlightAware Approximate
07:25AM 59.3948 27.2734 298° West  Level FlightAware Approximate
07:26AM 59.4505 27.0608 297° West  Level FlightAware Approximate
07:27AM 59.5059 26.8475 297° West  Level FlightAware Approximate
07:28AM 59.5610 26.6335 297° West  Level FlightAware Approximate
07:29AM 59.6156 26.4188 297° West  Level FlightAware Approximate
07:30AM 59.6700 26.2034 297° West  Level FlightAware Approximate
07:31AM 59.7239 25.9873 296° West  Level FlightAware Approximate
07:32AM 59.7776 25.7705 296° West  Level FlightAware Approximate
07:33AM 59.8308 25.5530 296° West  Level FlightAware Approximate
07:34AM 59.8838 25.3349 296° West  Level FlightAware Approximate
07:35AM 59.9363 25.1160 296° West  Level FlightAware Approximate
07:36AM 59.9885 24.8964 295° West  Level FlightAware Approximate
07:37AM 60.0403 24.6762 295° West  Level FlightAware Approximate
07:38AM 60.0918 24.4552 295° West  Level FlightAware Approximate
07:38AM 59.8767 27.1864 295° West 34,000  Level FlightAware ADS-B (EFHN)
07:39AM 60.1428 24.2336 295° West  Level FlightAware Approximate
07:40AM 60.1935 24.0113 295° West  Level FlightAware Approximate
07:40AM 59.9195 26.7305 281° West 397 457 34,000  Level FlightAware ADS-B (EFHN)
07:42AM 59.9697 26.2817 290° West 401 461 34,000  Level FlightAware ADS-B (EFHN)
07:43AM 60.0225 26.0787 302° West 406 467 34,000  Level FlightAware ADS-B (EFHN)
07:44AM 60.0572 25.9659 301° West 405 466 34,000  Level FlightAware ADS-B (EFHN)
07:44AM 60.0941 25.8448 301° West 405 466 34,000  Level FlightAware ADS-B (EFHN)
07:45AM 60.1479 25.6670 301° West 405 466 34,000  Level FlightAware ADS-B (EFHN)
07:46AM 60.1882 25.5325 301° West 403 464 34,000  Level FlightAware ADS-B (EFHN)
07:46AM 60.2171 25.4357 301° West 402 463 34,000  Level FlightAware ADS-B (EFHN)
07:47AM 60.2554 25.3068 301° West 401 461 34,000  Level FlightAware ADS-B (EFHN)
07:48AM 60.2840 25.2096 301° West 402 463 34,000  Level FlightAware ADS-B (EFHN)
07:48AM 60.3211 25.0834 301° West 403 464 34,000  Level FlightAware ADS-B (EFHN)
07:49AM 60.3502 24.9842 300° West 399 459 34,000  Level FlightAware ADS-B (EFHN)
07:49AM 60.3871 24.8575 300° West 402 463 34,000  Level FlightAware ADS-B (EFHN)
07:50AM 60.4215 24.7387 300° West 403 464 34,000  Level FlightAware ADS-B (EFHN)
07:51AM 60.4515 24.6346 300° West 404 465 34,000  Level FlightAware ADS-B (EFHN)
07:51AM 60.4789 24.5391 300° West 404 465 34,000  Level FlightAware ADS-B (EFHN)
07:52AM 60.5089 24.4344 299° West 402 463 34,000  Level FlightAware ADS-B (EFHN)
07:52AM 60.5522 24.2819 299° West 402 463 34,000  Level FlightAware ADS-B (EFHN)
07:53AM 60.5923 24.1400 300° West 407 468 34,000  Level FlightAware ADS-B (EFHN)
07:54AM 60.6191 24.0446 300° West 407 468 34,000  Level FlightAware ADS-B (EFHN)
07:54AM 60.6579 23.9056 300° West 407 468 34,000  Level FlightAware ADS-B (EFHN)
07:55AM 60.6863 23.8035 300° West 407 468 34,000  Level FlightAware ADS-B (EFHN)
07:55AM 60.7226 23.6719 299° West 407 468 34,000  Level FlightAware ADS-B (EFHN)
07:56AM 60.7573 23.5456 299° West 407 468 34,000  Level FlightAware ADS-B (EFHN)
07:57AM 60.7929 23.4156 299° West 407 468 34,000  Level FlightAware ADS-B (EFHN)
07:57AM 60.8221 23.3087 299° West 405 466 34,000  Level FlightAware ADS-B (EFHN)
07:58AM 60.8439 23.2278 299° West 406 467 34,000  Level FlightAware ADS-B (EFHN)
07:59AM 60.9107 22.9793 299° West 407 468 34,000  Level FlightAware ADS-B (EFHN)
07:59AM 60.9397 22.8705 299° West 407 468 34,000  Level FlightAware ADS-B (EFHN)
08:00AM 60.9743 22.7400 299° West 405 466 34,000  Level FlightAware ADS-B (EFHN)
08:01AM 60.9901 22.6802 298° West 406 467 34,000  Level FlightAware ADS-B (EFHN)
08:04AM 61.0699 22.3753 298° West 404 465 34,000  Level FlightAware ADS-B (ESKB)
08:06AM 61.0699 22.3753 298° West 404 465 34,000  Level FlightAware ADS-B (ESKB)
08:08AM 61.1483 22.0065 294° West  Level Estimated
08:09AM 61.1968 21.7750 294° West  Level Estimated
08:10AM 61.2449 21.5429 293° West  Level Estimated
08:11AM 61.2925 21.3100 293° West  Level Estimated
08:12AM 61.3398 21.0765 293° West  Level Estimated
08:13AM 61.3867 20.8422 293° West  Level Estimated
08:14AM 61.4332 20.6073 293° West  Level Estimated
08:15AM 61.4793 20.3716 292° West  Level Estimated
08:16AM 61.5249 20.1353 292° West  Level Estimated
08:17AM 61.5702 19.8982 292° West  Level Estimated
08:18AM 61.6150 19.6605 292° West  Level Estimated
08:19AM 61.6594 19.4220 292° West  Level Estimated
08:20AM 61.7034 19.1829 291° West  Level Estimated
08:21AM 61.7471 18.9431 291° West  Level Estimated
08:22AM 61.7902 18.7027 291° West  Level Estimated
08:23AM 61.8330 18.4615 291° West  Level Estimated
08:24AM 61.8753 18.2197 290° West  Level Estimated
08:25AM 61.9172 17.9773 290° West  Level Estimated
08:26AM 61.9587 17.7341 290° West  Level Estimated
08:27AM 61.9997 17.4903 290° West  Level Estimated
08:28AM 62.0404 17.2459 290° West  Level Estimated
08:29AM 62.0805 17.0008 289° West  Level Estimated
08:30AM 62.1203 16.7551 289° West  Level Estimated
08:31AM 62.1596 16.5087 289° West  Level Estimated
08:32AM 62.1985 16.2616 289° West  Level Estimated
08:33AM 62.2369 16.0140 289° West  Level Estimated
08:34AM 62.2749 15.7657 288° West  Level Estimated
08:35AM 62.3124 15.5168 288° West  Level Estimated
08:36AM 62.3495 15.2673 288° West  Level Estimated
08:37AM 62.3862 15.0171 288° West  Level Estimated
08:38AM 62.4224 14.7664 287° West  Level Estimated
08:39AM 62.4581 14.5150 287° West  Level Estimated
08:40AM 62.4934 14.2631 287° West  Level Estimated
08:41AM 62.5283 14.0105 287° West  Level Estimated
08:42AM 62.5627 13.7574 287° West  Level Estimated
08:43AM 62.5966 13.5037 286° West  Level Estimated
08:44AM 62.6301 13.2494 286° West  Level Estimated
08:45AM 62.6631 12.9945 286° West  Level Estimated
08:46AM 62.6956 12.7391 286° West  Level Estimated
08:47AM 62.7277 12.4831 285° West  Level Estimated
08:48AM 62.7593 12.2266 285° West  Level Estimated
08:49AM 62.7904 11.9695 285° West  Level Estimated
08:50AM 62.8211 11.7119 285° West  Level Estimated
08:51AM 62.8513 11.4537 284° West  Level Estimated
08:52AM 62.8810 11.1950 284° West  Level Estimated
08:53AM 62.9103 10.9358 284° West  Level Estimated
08:54AM 62.9391 10.6761 284° West  Level Estimated
08:55AM 62.9674 10.4159 284° West  Level Estimated
08:56AM 62.9952 10.1552 283° West  Level Estimated
08:57AM 63.0225 9.8940 283° West  Level Estimated
08:58AM 63.0494 9.6322 283° West  Level Estimated
08:59AM 63.0757 9.3701 283° West  Level Estimated
09:00AM 63.1016 9.1074 282° West  Level Estimated
09:01AM 63.1270 8.8443 282° West  Level Estimated
09:02AM 63.1520 8.5807 282° West  Level Estimated
09:03AM 63.1764 8.3167 282° West  Level Estimated
09:04AM 63.2003 8.0522 281° West  Level Estimated
09:05AM 63.2237 7.7873 281° West  Level Estimated
09:06AM 63.2467 7.5220 281° West  Level Estimated
09:07AM 63.2691 7.2563 281° West  Level Estimated
09:08AM 63.2911 6.9901 281° West  Level Estimated
09:09AM 63.3125 6.7236 280° West  Level Estimated
09:10AM 63.3335 6.4566 280° West  Level Estimated
09:11AM 63.3540 6.1893 280° West  Level Estimated
09:12AM 63.3739 5.9216 280° West  Level Estimated
09:13AM 63.3934 5.6535 279° West  Level Estimated
09:14AM 63.4123 5.3851 279° West  Level Estimated
09:15AM 63.4308 5.1163 279° West  Level Estimated
09:16AM 63.4487 4.8472 279° West  Level Estimated
09:17AM 63.4662 4.5778 278° West  Level Estimated
09:18AM 63.4831 4.3080 278° West  Level Estimated
09:19AM 63.4995 4.0379 278° West  Level Estimated
09:20AM 63.5155 3.7675 278° West  Level Estimated
09:21AM 63.5309 3.4968 277° West  Level Estimated
09:22AM 63.5458 3.2258 277° West  Level Estimated
09:23AM 63.5601 2.9545 277° West  Level Estimated
09:24AM 63.5740 2.6830 277° West  Level Estimated
09:25AM 63.5874 2.4112 276° West  Level Estimated
09:26AM 63.6002 2.1392 276° West  Level Estimated
09:27AM 63.6125 1.8669 276° West  Level Estimated
09:28AM 63.6244 1.5944 276° West  Level Estimated
09:29AM 63.6357 1.3216 275° West  Level Estimated
09:30AM 63.6464 1.0487 275° West  Level Estimated
09:31AM 63.6567 0.7756 275° West  Level Estimated
09:32AM 63.6664 0.5022 275° West  Level Estimated
09:33AM 63.6757 0.2287 274° West  Level Estimated
09:34AM 63.6844 -0.0450 274° West  Level Estimated
09:35AM 63.6926 -0.3189 274° West  Level Estimated
09:36AM 63.7002 -0.5929 274° West  Level Estimated
09:37AM 63.7074 -0.8671 273° West  Level Estimated
09:38AM 63.7140 -1.1414 273° West  Level Estimated
09:39AM 63.7201 -1.4158 273° West  Level Estimated
09:40AM 63.7257 -1.6903 273° West  Level Estimated
09:41AM 63.7307 -1.9649 273° West  Level Estimated
09:42AM 63.7353 -2.2397 272° West  Level Estimated
09:43AM 63.7393 -2.5145 272° West  Level Estimated
09:44AM 63.7428 -2.7893 272° West  Level Estimated
09:45AM 63.7457 -3.0643 272° West  Level Estimated
09:46AM 63.7482 -3.3393 271° West  Level Estimated
09:47AM 63.7501 -3.6143 271° West  Level Estimated
09:48AM 63.7515 -3.8894 271° West  Level Estimated
09:49AM 63.7524 -4.1645 271° West  Level Estimated
09:50AM 63.7527 -4.4396 270° West  Level Estimated
09:51AM 63.7525 -4.7147 270° West  Level Estimated
09:52AM 63.7518 -4.9898 270° West  Level Estimated
09:53AM 63.7506 -5.2649 270° West  Level Estimated
09:54AM 63.7489 -5.5399 269° West  Level Estimated
09:55AM 63.7466 -5.8149 269° West  Level Estimated
09:56AM 63.7438 -6.0899 269° West  Level Estimated
09:57AM 63.7405 -6.3648 269° West  Level Estimated
09:58AM 63.7366 -6.6396 268° West  Level Estimated
09:59AM 63.7323 -6.9144 268° West  Level Estimated
10:00AM 63.7274 -7.1891 268° West  Level Estimated
10:01AM 63.7220 -7.4636 268° West  Level Estimated
10:02AM 63.7160 -7.7381 267° West  Level Estimated
10:03AM 63.7096 -8.0124 267° West  Level Estimated
10:04AM 63.7026 -8.2866 267° West  Level Estimated
10:05AM 63.6951 -8.5607 267° West  Level Estimated
10:06AM 63.6871 -8.8346 266° West  Level Estimated
10:07AM 63.6785 -9.1083 266° West  Level Estimated
10:08AM 63.6695 -9.3819 266° West  Level Estimated
10:09AM 63.6599 -9.6553 266° West  Level Estimated
10:10AM 63.6498 -9.9285 265° West  Level Estimated
10:11AM 63.6392 -10.2015 265° West  Level Estimated
10:12AM 63.6281 -10.4743 265° West  Level Estimated
10:13AM 63.6164 -10.7469 265° West  Level Estimated
10:14AM 63.6043 -11.0193 264° West  Level Estimated
10:15AM 63.5916 -11.2914 264° West  Level Estimated
10:16AM 63.5784 -11.5633 264° West  Level Estimated
10:17AM 63.5647 -11.8349 264° West  Level Estimated
10:18AM 63.5505 -12.1062 263° West  Level Estimated
10:19AM 63.5357 -12.3773 263° West  Level Estimated
10:20AM 63.5205 -12.6481 263° West  Level Estimated
10:21AM 63.5047 -12.9186 263° West  Level Estimated
10:22AM 63.4885 -13.1888 262° West  Level Estimated
10:23AM 63.4717 -13.4587 262° West  Level Estimated
10:24AM 63.4544 -13.7282 262° West  Level Estimated
10:25AM 63.4367 -13.9975 262° West  Level Estimated
10:26AM 63.4184 -14.2664 261° West  Level Estimated
10:27AM 63.3996 -14.5349 261° West  Level Estimated
10:28AM 63.3803 -14.8031 261° West  Level Estimated
10:29AM 63.3605 -15.0709 261° West  Level Estimated
10:30AM 63.3402 -15.3384 261° West  Level Estimated
10:31AM 63.3194 -15.6054 260° West  Level Estimated
10:32AM 63.2981 -15.8721 260° West  Level Estimated
10:33AM 63.2763 -16.1384 260° West  Level Estimated
10:34AM 63.2540 -16.4043 260° West  Level Estimated
10:35AM 63.2312 -16.6697 259° West  Level Estimated
10:36AM 63.2080 -16.9348 259° West  Level Estimated
10:37AM 63.1842 -17.1994 259° West  Level Estimated
10:38AM 63.1599 -17.4635 259° West  Level Estimated
10:39AM 63.1352 -17.7273 258° West  Level Estimated
10:40AM 63.1099 -17.9905 258° West  Level Estimated
10:41AM 63.0842 -18.2533 258° West  Level Estimated
10:42AM 63.0580 -18.5157 258° West  Level Estimated
10:43AM 63.0313 -18.7775 257° West  Level Estimated
10:44AM 63.0041 -19.0389 257° West  Level Estimated
10:45AM 62.9764 -19.2998 257° West  Level Estimated
10:46AM 62.9483 -19.5602 257° West  Level Estimated
10:47AM 62.9197 -19.8200 257° West  Level Estimated
10:48AM 62.8906 -20.0794 256° West  Level Estimated
10:49AM 62.8610 -20.3383 256° West  Level Estimated
10:50AM 62.8310 -20.5966 256° West  Level Estimated
10:51AM 62.8004 -20.8544 256° West  Level Estimated
10:52AM 62.7694 -21.1117 255° West  Level Estimated
10:53AM 62.7380 -21.3684 255° West  Level Estimated
10:54AM 62.7061 -21.6245 255° West  Level Estimated
10:55AM 62.6737 -21.8801 255° West  Level Estimated
10:56AM 62.6408 -22.1352 254° West  Level Estimated
10:57AM 62.6075 -22.3897 254° West  Level Estimated
10:58AM 62.5737 -22.6436 254° West  Level Estimated
10:59AM 62.5395 -22.8969 254° West  Level Estimated
11:00AM 62.5048 -23.1496 254° West  Level Estimated
11:01AM 62.4696 -23.4018 253° West  Level Estimated
11:02AM 62.4340 -23.6533 253° West  Level Estimated
11:03AM 62.3980 -23.9043 253° West  Level Estimated
11:04AM 62.3615 -24.1546 253° West  Level Estimated
11:05AM 62.3245 -24.4043 252° West  Level Estimated
11:06AM 62.2871 -24.6534 252° West  Level Estimated
11:07AM 62.2492 -24.9019 252° West  Level Estimated
11:08AM 62.2110 -25.1498 252° West  Level Estimated
11:09AM 62.1722 -25.3970 252° West  Level Estimated
11:10AM 62.1331 -25.6436 251° West  Level Estimated
11:11AM 62.0934 -25.8895 251° West  Level Estimated
11:12AM 62.0534 -26.1349 251° West  Level Estimated
11:13AM 62.0129 -26.3795 251° West  Level Estimated
11:14AM 61.9720 -26.6235 250° West  Level Estimated
11:15AM 61.9307 -26.8669 250° West  Level Estimated
11:16AM 61.8889 -27.1096 250° West  Level Estimated
11:17AM 61.8467 -27.3516 250° West  Level Estimated
11:18AM 61.8041 -27.5929 250° West  Level Estimated
11:19AM 61.7611 -27.8336 249° West  Level Estimated
11:20AM 61.7176 -28.0736 249° West  Level Estimated
11:21AM 61.6737 -28.3130 249° West  Level Estimated
11:22AM 61.6295 -28.5516 249° West  Level Estimated
11:23AM 61.5847 -28.7896 249° West  Level Estimated
11:24AM 61.5396 -29.0268 248° West  Level Estimated
11:25AM 61.4941 -29.2634 248° West  Level Estimated
11:26AM 61.4482 -29.4993 248° West  Level Estimated
11:27AM 61.4018 -29.7345 248° West  Level Estimated
11:28AM 61.3550 -29.9690 248° West  Level Estimated
11:29AM 61.3079 -30.2027 247° West  Level Estimated
11:30AM 61.2603 -30.4358 247° West  Level Estimated
11:31AM 61.2124 -30.6682 247° West  Level Estimated
11:32AM 61.1641 -30.8999 247° West  Level Estimated
11:33AM 61.1153 -31.1308 246° West  Level Estimated
11:34AM 61.0662 -31.3611 246° West  Level Estimated
11:35AM 61.0166 -31.5906 246° West  Level Estimated
11:36AM 60.9667 -31.8194 246° West  Level Estimated
11:37AM 60.9164 -32.0475 246° West  Level Estimated
11:38AM 60.8657 -32.2748 245° Southwest  Level Estimated
11:39AM 60.8147 -32.5015 245° Southwest  Level Estimated
11:40AM 60.7632 -32.7274 245° Southwest  Level Estimated
11:41AM 60.7114 -32.9526 245° Southwest  Level Estimated
11:42AM 60.6592 -33.1770 245° Southwest  Level Estimated
11:43AM 60.6066 -33.4008 244° Southwest  Level Estimated
11:44AM 60.5537 -33.6238 244° Southwest  Level Estimated
11:45AM 60.5004 -33.8460 244° Southwest  Level Estimated
11:46AM 60.4467 -34.0676 244° Southwest  Level Estimated
11:47AM 60.3926 -34.2884 244° Southwest  Level Estimated
11:48AM 60.3382 -34.5084 244° Southwest  Level Estimated
11:49AM 60.2834 -34.7278 243° Southwest  Level Estimated
11:50AM 60.2283 -34.9464 243° Southwest  Level Estimated
11:51AM 60.1728 -35.1642 243° Southwest  Level Estimated
11:52AM 60.1169 -35.3814 243° Southwest  Level Estimated
11:53AM 60.0607 -35.5977 243° Southwest  Level Estimated
11:54AM 60.0041 -35.8134 242° Southwest  Level Estimated
11:55AM 59.9472 -36.0283 242° Southwest  Level Estimated
11:56AM 59.8900 -36.2425 242° Southwest  Level Estimated
11:57AM 59.8324 -36.4559 242° Southwest  Level Estimated
11:58AM 59.7744 -36.6686 242° Southwest  Level Estimated
11:59AM 59.7161 -36.8805 241° Southwest  Level Estimated
12:00PM 59.6575 -37.0918 241° Southwest  Level Estimated
12:01PM 59.5985 -37.3022 241° Southwest  Level Estimated
12:02PM 59.5392 -37.5120 241° Southwest  Level Estimated
12:03PM 59.4795 -37.7210 241° Southwest  Level Estimated
12:04PM 59.4196 -37.9292 241° Southwest  Level Estimated
12:05PM 59.3593 -38.1367 240° Southwest  Level Estimated
12:06PM 59.2986 -38.3435 240° Southwest  Level Estimated
12:07PM 59.2377 -38.5495 240° Southwest  Level Estimated
12:08PM 59.1764 -38.7548 240° Southwest  Level Estimated
12:09PM 59.1148 -38.9594 240° Southwest  Level Estimated
12:10PM 59.0529 -39.1632 239° Southwest  Level Estimated
12:11PM 58.9906 -39.3663 239° Southwest  Level Estimated
12:12PM 58.9281 -39.5687 239° Southwest  Level Estimated
12:13PM 58.8652 -39.7703 239° Southwest  Level Estimated
12:14PM 58.8020 -39.9712 239° Southwest  Level Estimated
12:15PM 58.7385 -40.1714 239° Southwest  Level Estimated
12:16PM 58.6747 -40.3708 238° Southwest  Level Estimated
12:17PM 58.6105 -40.5695 238° Southwest  Level Estimated
12:18PM 58.5461 -40.7675 238° Southwest  Level Estimated
12:19PM 58.4814 -40.9647 238° Southwest  Level Estimated
12:20PM 58.4164 -41.1613 238° Southwest  Level Estimated
12:21PM 58.3510 -41.3571 238° Southwest  Level Estimated
12:22PM 58.2854 -41.5521 237° Southwest  Level Estimated
12:23PM 58.2195 -41.7465 237° Southwest  Level Estimated
12:24PM 58.1533 -41.9401 237° Southwest  Level Estimated
12:25PM 58.0868 -42.1330 237° Southwest  Level Estimated
12:26PM 58.0200 -42.3252 237° Southwest  Level Estimated
12:27PM 57.9529 -42.5166 237° Southwest  Level Estimated
12:28PM 57.8855 -42.7074 236° Southwest  Level Estimated
12:29PM 57.8178 -42.8974 236° Southwest  Level Estimated
12:30PM 57.7499 -43.0867 236° Southwest  Level Estimated
12:31PM 57.6817 -43.2753 236° Southwest  Level Estimated
12:32PM 57.6132 -43.4632 236° Southwest  Level Estimated
12:33PM 57.5444 -43.6504 236° Southwest  Level Estimated
12:34PM 57.4753 -43.8369 235° Southwest  Level Estimated
12:35PM 57.4060 -44.0227 235° Southwest  Level Estimated
12:36PM 57.3364 -44.2077 235° Southwest  Level Estimated
12:37PM 57.2665 -44.3921 235° Southwest  Level Estimated
12:38PM 57.1964 -44.5758 235° Southwest  Level Estimated
12:39PM 57.1260 -44.7588 235° Southwest  Level Estimated
12:40PM 57.0553 -44.9410 235° Southwest  Level Estimated
12:41PM 56.9844 -45.1226 234° Southwest  Level Estimated
12:42PM 56.9132 -45.3035 234° Southwest  Level Estimated
12:43PM 56.8417 -45.4837 234° Southwest  Level Estimated
12:44PM 56.7700 -45.6632 234° Southwest  Level Estimated
12:45PM 56.6980 -45.8420 234° Southwest  Level Estimated
12:46PM 56.6258 -46.0202 234° Southwest  Level Estimated
12:47PM 56.5533 -46.1977 234° Southwest  Level Estimated
12:48PM 56.4806 -46.3744 233° Southwest  Level Estimated
12:49PM 56.4076 -46.5505 233° Southwest  Level Estimated
12:50PM 56.3344 -46.7260 233° Southwest  Level Estimated
12:51PM 56.2609 -46.9007 233° Southwest  Level Estimated
12:52PM 56.1872 -47.0748 233° Southwest  Level Estimated
12:53PM 56.1132 -47.2482 233° Southwest  Level Estimated
12:54PM 56.0390 -47.4210 232° Southwest  Level Estimated
12:55PM 55.9645 -47.5931 232° Southwest  Level Estimated
12:56PM 55.8898 -47.7645 232° Southwest  Level Estimated
12:57PM 55.8149 -47.9353 232° Southwest  Level Estimated
12:58PM 55.7397 -48.1054 232° Southwest  Level Estimated
12:59PM 55.6643 -48.2748 232° Southwest  Level Estimated
01:00PM 55.5887 -48.4436 232° Southwest  Level Estimated
01:01PM 55.5129 -48.6118 231° Southwest  Level Estimated
01:02PM 55.4368 -48.7793 231° Southwest  Level Estimated
01:03PM 55.3604 -48.9461 231° Southwest  Level Estimated
01:04PM 55.2839 -49.1124 231° Southwest  Level Estimated
01:05PM 55.2071 -49.2779 231° Southwest  Level Estimated
01:06PM 55.1301 -49.4429 231° Southwest  Level Estimated
01:07PM 55.0529 -49.6072 231° Southwest  Level Estimated
01:08PM 54.9755 -49.7708 231° Southwest  Level Estimated
01:09PM 54.8978 -49.9339 230° Southwest  Level Estimated
01:10PM 54.8200 -50.0963 230° Southwest  Level Estimated
01:11PM 54.7419 -50.2580 230° Southwest  Level Estimated
01:12PM 54.6636 -50.4192 230° Southwest  Level Estimated
01:13PM 54.5850 -50.5797 230° Southwest  Level Estimated
01:14PM 54.5063 -50.7397 230° Southwest  Level Estimated
01:15PM 54.4274 -50.8990 230° Southwest  Level Estimated
01:16PM 54.3482 -51.0577 229° Southwest  Level Estimated
01:17PM 54.2689 -51.2157 229° Southwest  Level Estimated
01:18PM 54.1893 -51.3732 229° Southwest  Level Estimated
01:19PM 54.1096 -51.5301 229° Southwest  Level Estimated
01:20PM 54.0296 -51.6863 229° Southwest  Level Estimated
01:21PM 53.9494 -51.8420 229° Southwest  Level Estimated
01:22PM 53.8691 -51.9970 229° Southwest  Level Estimated
01:23PM 53.7885 -52.1515 229° Southwest  Level Estimated
01:24PM 53.7077 -52.3054 228° Southwest  Level Estimated
01:25PM 53.6268 -52.4587 228° Southwest  Level Estimated
01:26PM 53.5456 -52.6114 228° Southwest  Level Estimated
01:27PM 53.4643 -52.7635 228° Southwest  Level Estimated
01:28PM 53.3827 -52.9150 228° Southwest  Level Estimated
01:29PM 53.3010 -53.0659 228° Southwest  Level Estimated
01:30PM 53.2191 -53.2163 228° Southwest  Level Estimated
01:30PM 53.0500 -54.1333 227° Southwest 250 288 34,000  Level Gander Center
01:31PM 53.1369 -53.3661 228° Southwest  Level Estimated
01:31PM 53.0000 -54.3000 244° Southwest 430 495 34,000  Level Gander Center
01:32PM 53.0546 -53.5153 227° Southwest  Level Estimated
01:32PM 52.9167 -54.4833 233° Southwest 460 529 34,000  Level Gander Center
01:33PM 52.9705 -53.6670 227° Southwest  Level Estimated
01:33PM 52.8667 -54.6833 248° West 460 529 34,000  Level Gander Center
01:34PM 52.8861 -53.8180 227° Southwest  Level Estimated
01:34PM 52.8000 -54.8833 241° Southwest 450 518 34,000  Level Gander Center
01:35PM 52.8016 -53.9685 227° Southwest  Level Estimated
01:35PM 52.7167 -55.0333 228° Southwest 460 529 34,000  Level Gander Center
01:36PM 52.6167 -55.2167 228° Southwest 470 541 34,000  Level Gander Center
01:37PM 52.5500 -55.3333 227° Southwest 470 541 34,000  Level Moncton Center
01:38PM 52.4500 -55.5167 228° Southwest 470 541 34,000  Level Gander Center
01:39PM 52.3667 -55.6667 228° Southwest 470 541 34,000  Level Moncton Center
01:40PM 52.2833 -55.8333 231° Southwest 470 541 34,000  Level Moncton Center
01:41PM 52.2000 -55.9833 228° Southwest 480 552 34,000  Level Moncton Center
01:42PM 52.1000 -56.1333 223° Southwest 470 541 34,000  Level Moncton Center
01:43PM 52.0000 -56.3167 229° Southwest 470 541 34,000  Level Gander Center
01:44PM 51.9333 -56.4500 231° Southwest 470 541 34,000  Level Gander Center
01:45PM 51.8333 -56.6333 229° Southwest 470 541 34,000  Level Gander Center
01:46PM 51.7333 -56.7667 220° Southwest 470 541 34,000  Level Gander Center
01:47PM 51.6500 -56.9500 234° Southwest 470 541 34,000  Level Gander Center
01:48PM 51.5667 -57.0833 225° Southwest 470 541 34,000  Level Gander Center
01:49PM 51.4667 -57.2333 223° Southwest 470 541 34,000  Level Gander Center
01:50PM 51.3833 -57.4000 231° Southwest 470 541 34,000  Level Gander Center
01:51PM 51.3000 -57.5333 225° Southwest 470 541 34,000  Level Gander Center
01:52PM 51.2000 -57.6833 223° Southwest 460 529 34,000  Level Gander Center
01:53PM 51.1000 -57.8500 226° Southwest 460 529 34,000  Level Gander Center
01:54PM 51.0333 -57.9833 232° Southwest 460 529 34,000  Level Gander Center
01:55PM 50.9500 -58.1167 225° Southwest 450 518 34,000  Level Moncton Center
01:56PM 50.8500 -58.2667 223° Southwest 460 529 34,000  Level Gander Center
01:57PM 50.7500 -58.4000 220° Southwest 450 518 34,000  Level Gander Center
01:58PM 50.6667 -58.5667 232° Southwest 460 529 34,000  Level Gander Center
01:59PM 50.5833 -58.7000 225° Southwest 460 529 34,000  Level Gander Center
02:00PM 50.5000 -58.8333 226° Southwest 460 529 34,000  Level Gander Center
02:01PM 50.4000 -58.9667 220° Southwest 460 529 34,000  Level Gander Center
02:02PM 50.3000 -59.1333 227° Southwest 460 529 34,000  Level Gander Center
02:03PM 50.2333 -59.2667 232° Southwest 460 529 34,000  Level Moncton Center
02:04PM 50.1333 -59.3833 217° Southwest 460 529 34,000  Level Moncton Center
02:05PM 50.0333 -59.5667 230° Southwest 460 529 34,000  Level Gander Center
02:06PM 49.9500 -59.7000 226° Southwest 460 529 34,000  Level Gander Center
02:07PM 49.8667 -59.8333 226° Southwest 460 529 34,000  Level Gander Center
02:08PM 49.7667 -59.9667 221° Southwest 450 518 34,000  Level Gander Center
02:09PM 49.6833 -60.1000 226° Southwest 450 518 34,000  Level Gander Center
02:11PM 49.5000 -60.3500 222° Southwest 450 518 34,000  Level Moncton Center
02:12PM 49.4167 -60.4833 226° Southwest 460 529 34,000  Level Moncton Center
02:13PM 49.3167 -60.6333 224° Southwest 460 529 34,000  Level Gander Center
02:14PM 49.2333 -60.7500 222° Southwest 450 518 34,000  Level Moncton Center
02:15PM 49.1333 -60.8833 221° Southwest 460 529 34,000  Level Moncton Center
02:16PM 49.0333 -61.0500 228° Southwest 460 529 34,000  Level Gander Center
02:17PM 48.9500 -61.1833 226° Southwest 460 529 34,000  Level Gander Center
02:18PM 48.8500 -61.3000 218° Southwest 460 529 34,000  Level Gander Center
02:19PM 48.7667 -61.4167 223° Southwest 460 529 34,000  Level Moncton Center
02:20PM 48.6667 -61.5500 221° Southwest 460 529 34,000  Level Moncton Center
02:21PM 48.5667 -61.6833 221° Southwest 450 518 34,000  Level Moncton Center
02:22PM 48.4833 -61.8167 227° Southwest 460 529 34,000  Level Moncton Center
02:23PM 48.3833 -61.9833 228° Southwest 460 529 34,000  Level Gander Center
02:24PM 48.3000 -62.1167 227° Southwest 450 518 34,000  Level Gander Center
02:25PM 48.2167 -62.2167 219° Southwest 460 529 34,000  Level Moncton Center
02:26PM 48.1167 -62.3500 222° Southwest 450 518 34,000  Level Gander Center
02:27PM 48.0000 -62.5000 221° Southwest 460 529 34,000  Level Gander Center
02:28PM 47.9167 -62.6333 227° Southwest 460 529 34,000  Level Gander Center
02:29PM 47.8167 -62.7500 218° Southwest 460 529 34,000  Level Gander Center
02:30PM 47.7333 -62.8500 219° Southwest 460 529 34,000  Level Moncton Center
02:31PM 47.6333 -63.0000 225° Southwest 460 529 34,000  Level Moncton Center
02:32PM 47.5333 -63.1333 222° Southwest 460 529 34,000  Level Gander Center
02:33PM 47.4333 -63.2833 225° Southwest 460 529 34,000  Level Gander Center
02:34PM 47.3667 -63.3833 225° Southwest 460 529 34,000  Level Moncton Center
02:35PM 47.2667 -63.5167 222° Southwest 460 529 34,000  Level Moncton Center
02:36PM 47.1667 -63.6333 218° Southwest 460 529 34,000  Level Moncton Center
02:37PM 47.0667 -63.7500 218° Southwest 460 529 34,000  Level Moncton Center
02:38PM 46.9667 -63.9000 226° Southwest 460 529 34,000  Level Gander Center
02:39PM 46.8667 -64.0167 219° Southwest 460 529 34,000  Level Gander Center
02:40PM 46.7667 -64.1333 219° Southwest 470 541 34,000  Level Gander Center
02:41PM 46.6667 -64.2667 222° Southwest 470 541 34,000  Level Gander Center
02:42PM 46.5667 -64.3833 219° Southwest 480 552 34,000  Level Gander Center
02:43PM 46.4833 -64.5333 231° Southwest 480 552 34,000  Level Gander Center
02:49PM 45.8463 -65.3159 220° Southwest 485 558 34,000  Level FlightAware ADS-B (CYQI)
02:50PM 45.7793 -65.3974 220° Southwest 485 558 34,000  Level FlightAware ADS-B (CYQI)
02:50PM 45.7247 -65.4636 220° Southwest 485 558 34,000  Level FlightAware ADS-B (CYQI)
02:51PM 45.6766 -65.5217 220° Southwest 484 557 34,000  Level FlightAware ADS-B (CYQI)
02:51PM 45.6058 -65.6108 226° Southwest 475 547 34,000  Level FlightAware ADS-B (CYQI)
02:52PM 45.5660 -65.6741 228° Southwest 472 543 34,000  Level FlightAware ADS-B (CYQI)
02:53PM 45.5031 -65.7743 228° Southwest 472 543 34,000  Level FlightAware ADS-B (CYQI)
02:53PM 45.4572 -65.8470 228° Southwest 470 541 34,000  Level FlightAware ADS-B (CYQI)
02:54PM 45.4027 -65.9333 228° Southwest 471 542 34,000  Level FlightAware ADS-B (CYQI)
02:54PM 45.3552 -66.0081 228° Southwest 471 542 34,000  Level FlightAware ADS-B (CYQI)
02:55PM 45.3130 -66.0745 228° Southwest 470 541 34,000  Level FlightAware ADS-B (CYQI)
02:55PM 45.2565 -66.1630 228° Southwest 470 541 34,000  Level FlightAware ADS-B (CYQI)
02:56PM 45.2102 -66.2355 228° Southwest 472 543 34,000  Level FlightAware ADS-B (CYQI)
02:57PM 45.1541 -66.3228 228° Southwest 473 544 34,000  Level FlightAware ADS-B (CYQI)
02:57PM 45.1089 -66.3931 228° Southwest 474 545 34,000  Level FlightAware ADS-B (CYQI)
02:58PM 45.0610 -66.4673 228° Southwest 475 547 34,000  Level FlightAware ADS-B (CYQI)
02:58PM 45.0029 -66.5569 228° Southwest 474 545 34,000  Level FlightAware ADS-B (CYQI)
02:59PM 44.9623 -66.6196 228° Southwest 474 545 34,000  Level FlightAware ADS-B (CYQI)
02:59PM 44.9142 -66.6936 228° Southwest 472 543 34,000  Level FlightAware ADS-B (CYQI)
03:01PM 44.8177 -66.8412 227° Southwest 470 541 34,000  Level FlightAware ADS-B (CYQI)
03:01PM 44.7379 -66.9629 227° Southwest 471 542 34,000  Level FlightAware ADS-B (CYQI)
03:02PM 44.6799 -67.0510 227° Southwest 471 542 34,000  Level FlightAware ADS-B (CYQI)
03:03PM 44.6194 -67.1426 227° Southwest 471 542 34,000  Level FlightAware ADS-B (CYQI)
03:03PM 44.5731 -67.2126 227° Southwest 470 541 34,000  Level FlightAware ADS-B (CYQI)
03:04PM 44.5310 -67.2759 227° Southwest 467 537 34,000  Level FlightAware ADS-B (CYQI)
03:04PM 44.4847 -67.3453 227° Southwest 466 536 34,000  Level FlightAware ADS-B (CYQI)
03:05PM 44.4283 -67.4298 227° Southwest 466 536 34,000  Level FlightAware ADS-B (CYQI)
03:05PM 44.3706 -67.5160 227° Southwest 467 537 34,000  Level FlightAware ADS-B (CYQI)
03:06PM 44.3253 -67.5835 227° Southwest 466 536 34,000  Level FlightAware ADS-B (CYQI)
03:06PM 44.2813 -67.6487 227° Southwest 465 535 34,000  Level FlightAware ADS-B (CYQI)
03:07PM 44.2236 -67.7342 227° Southwest 465 535 34,000  Level FlightAware ADS-B (CYQI)
03:08PM 44.1792 -67.7998 227° Southwest 466 536 34,000  Level FlightAware ADS-B (CYQI)
03:08PM 44.1288 -67.8741 227° Southwest 466 536 34,000  Level FlightAware ADS-B (KBGR)
03:09PM 44.0918 -67.9284 227° Southwest 466 536 34,000  Level FlightAware ADS-B (KBGR)
03:09PM 44.0315 -68.0167 227° Southwest 466 536 34,000  Level FlightAware ADS-B (KBGR)
03:10PM 43.9865 -68.0825 227° Southwest 463 533 34,000  Level FlightAware ADS-B (CYQI)
03:10PM 43.9261 -68.1706 227° Southwest 463 533 34,000  Level FlightAware ADS-B (CYQI)
03:11PM 43.8832 -68.2331 226° Southwest 465 535 34,000  Level FlightAware ADS-B (CYQI)
03:11PM 43.8363 -68.3011 226° Southwest 466 536 34,000  Level FlightAware ADS-B (CYQI)
03:12PM 43.7935 -68.3631 226° Southwest 466 536 34,000  Level FlightAware ADS-B (CYQI)
03:12PM 43.7488 -68.4277 226° Southwest 465 535 34,000  Level FlightAware ADS-B (CYQI)
03:13PM 43.6913 -68.5106 226° Southwest 463 533 34,000  Level FlightAware ADS-B (CYQI)
03:14PM 43.6463 -68.5751 226° Southwest 464 534 34,000  Level FlightAware ADS-B (CYQI)
03:14PM 43.6000 -68.6415 226° Southwest 465 535 34,000  Level FlightAware ADS-B (CYQI)
03:15PM 43.5536 -68.7078 226° Southwest 465 535 34,000  Level FlightAware ADS-B (CYQI)
03:15PM 43.5090 -68.7715 226° Southwest 461 531 34,000  Level FlightAware ADS-B (CYQI)
03:16PM 43.4680 -68.8298 226° Southwest 459 528 34,000  Level FlightAware ADS-B (CYQI)
03:16PM 43.4265 -68.8887 226° Southwest 459 528 34,000  Level FlightAware ADS-B (CYQI)
03:17PM 43.3639 -68.9775 226° Southwest 460 529 34,000  Level FlightAware ADS-B (CYQI)
03:17PM 43.3183 -69.0420 226° Southwest 458 527 34,000  Level FlightAware ADS-B (CYQI)
03:18PM 43.2872 -69.0858 227° Southwest 451 519 34,000  Level FlightAware ADS-B (KASH)
03:18PM 43.2484 -69.1404 226° Southwest 460 529 34,000  Level FlightAware ADS-B (CYQI)
03:18PM 43.2364 -69.1572 227° Southwest 451 519 34,000  Level FlightAware ADS-B (KBOS)
03:19PM 43.1904 -69.2218 226° Southwest 462 532 34,000  Level FlightAware ADS-B (CYQI)
03:19PM 43.1369 -69.2967 226° Southwest 463 533 34,000  Level FlightAware ADS-B (KBOS)
03:20PM 43.0840 -69.3707 226° Southwest 462 532 34,000  Level FlightAware ADS-B (CYQI)
03:20PM 43.0372 -69.4358 226° Southwest 460 529 34,000  Level FlightAware ADS-B (CYQI)
03:21PM 42.9693 -69.5301 226° Southwest 460 529 34,000  Level FlightAware ADS-B (KBOS)
03:22PM 42.9235 -69.5936 225° Southwest 462 532 34,000  Level FlightAware ADS-B (KBOS)
03:22PM 42.8707 -69.6666 225° Southwest 463 533 34,000  Level FlightAware ADS-B (KBOS)
03:23PM 42.8142 -69.7445 225° Southwest 465 535 34,000  Level FlightAware ADS-B (CYQI)
03:23PM 42.7656 -69.8113 225° Southwest 465 535 34,000  Level FlightAware ADS-B (CYQI)
03:24PM 42.7501 -69.8326 226° Southwest 459 528 34,000  Level FlightAware ADS-B (KASH)
03:24PM 42.7080 -69.8903 225° Southwest 463 533 34,000  Level FlightAware ADS-B (CYQI)
03:25PM 42.6378 -69.9861 225° Southwest 463 533 34,000  Level FlightAware ADS-B (KBOS)
03:25PM 42.5918 -70.0488 225° Southwest 462 532 34,000  Level FlightAware ADS-B (KBOS)
03:26PM 42.5368 -70.1236 225° Southwest 462 532 34,000  Level FlightAware ADS-B
03:27PM 42.4709 -70.2131 225° Southwest 462 532 34,000  Level FlightAware ADS-B (KBOS)
03:27PM 42.4670 -70.2183 225° Southwest 461 531 34,000  Level FlightAware ADS-B
03:28PM 42.3793 -70.3367 225° Southwest 458 527 34,000  Level FlightAware ADS-B (KBOS)
03:28PM 42.3340 -70.3976 225° Southwest 455 524 34,000  Level FlightAware ADS-B (KASH)
03:29PM 42.2897 -70.4572 225° Southwest 453 521 34,000  Level FlightAware ADS-B (KASH)
03:29PM 42.2444 -70.5179 225° Southwest 453 521 34,000  Level FlightAware ADS-B (KASH)
03:30PM 42.1950 -70.5840 225° Southwest 454 522 34,000  Level FlightAware ADS-B (KBOS)
03:30PM 42.1467 -70.6486 225° Southwest 455 524 34,000  Level FlightAware ADS-B
03:31PM 42.1059 -70.7028 225° Southwest 455 524 34,000  Level FlightAware ADS-B (KBOS)
03:31PM 42.0477 -70.7800 225° Southwest 455 524 34,000  Level FlightAware ADS-B (KASH)
03:32PM 42.0032 -70.8390 225° Southwest 453 521 34,000  Level FlightAware ADS-B
03:33PM 41.9551 -70.9025 225° Southwest 453 521 34,000  Level FlightAware ADS-B
03:33PM 41.9104 -70.9617 225° Southwest 453 521 34,000  Level FlightAware ADS-B
03:34PM 41.8629 -71.0242 225° Southwest 454 522 34,000  Level FlightAware ADS-B (KASH)
03:34PM 41.8163 -71.0854 225° Southwest 455 524 34,000  Level FlightAware ADS-B (KOWD)
03:35PM 41.7570 -71.1633 224° Southwest 456 525 34,000  Level FlightAware ADS-B (KOWD)
03:35PM 41.7107 -71.2236 224° Southwest 455 524 34,000  Level FlightAware ADS-B (KOWD)
03:36PM 41.6611 -71.2884 224° Southwest 453 521 34,000  Level FlightAware ADS-B
03:36PM 41.6087 -71.3566 224° Southwest 453 521 34,000  Level FlightAware ADS-B
03:37PM 41.5627 -71.4163 224° Southwest 452 520 34,000  Level FlightAware ADS-B
03:38PM 41.4979 -71.5003 224° Southwest 452 520 34,000  Level FlightAware ADS-B
03:38PM 41.4515 -71.5603 224° Southwest 453 521 34,000  Level FlightAware ADS-B
03:39PM 41.4017 -71.6246 224° Southwest 454 522 34,000  Level FlightAware ADS-B
03:39PM 41.3558 -71.6835 224° Southwest 453 521 34,000  Level FlightAware ADS-B
03:40PM 41.3077 -71.7452 224° Southwest 451 519 34,000  Level FlightAware ADS-B
03:40PM 41.2624 -71.8032 224° Southwest 449 517 34,000  Level FlightAware ADS-B
03:41PM 41.2121 -71.8676 224° Southwest 450 518 34,000  Level FlightAware ADS-B (KSNC)
03:41PM 41.1740 -71.9162 224° Southwest 451 519 34,000  Level FlightAware ADS-B (KSNC)
03:42PM 41.1196 -71.9854 224° Southwest 449 517 34,000  Level FlightAware ADS-B (KSNC)
03:42PM 41.0618 -72.0589 224° Southwest 450 518 34,000  Level FlightAware ADS-B (KSNC)
03:43PM 41.0148 -72.1186 224° Southwest 451 519 34,000  Level FlightAware ADS-B (KSNC)
03:44PM 40.9548 -72.1943 224° Southwest 449 517 34,000  Level FlightAware ADS-B (KSNC)
03:44PM 40.9100 -72.2508 224° Southwest 450 518 34,000  Level FlightAware ADS-B (KSNC)
03:45PM 40.8616 -72.3117 224° Southwest 448 516 34,000  Level FlightAware ADS-B (KSNC)
03:45PM 40.8169 -72.3679 224° Southwest 446 513 34,000  Level FlightAware ADS-B (KSNC)
03:46PM 40.7710 -72.4254 224° Southwest 446 513 34,000  Level FlightAware ADS-B (KSNC)
03:46PM 40.7252 -72.4826 224° Southwest 444 511 34,000  Level FlightAware ADS-B (KSNC)
03:47PM 40.6802 -72.5388 223° Southwest 444 511 34,000  Level FlightAware ADS-B (KSNC)
03:47PM 40.6231 -72.6100 223° Southwest 444 511 34,000  Level FlightAware ADS-B (KSNC)
03:48PM 40.5761 -72.6684 223° Southwest 444 511 34,000  Level FlightAware ADS-B (KSNC)
03:49PM 40.5172 -72.7415 223° Southwest 441 507 34,000  Level FlightAware ADS-B (KSNC)
03:49PM 40.4726 -72.7965 223° Southwest 440 506 34,000  Level FlightAware ADS-B (KSNC)
03:50PM 40.4290 -72.8503 223° Southwest 440 506 34,000  Level FlightAware ADS-B (KSNC)
03:50PM 40.3858 -72.9036 223° Southwest 439 505 34,000  Level FlightAware ADS-B (KSNC)
03:51PM 40.3364 -72.9643 223° Southwest 437 503 34,000  Level FlightAware ADS-B (KSNC)
03:51PM 40.3000 -73.0090 223° Southwest 435 501 34,000  Level FlightAware ADS-B (KSNC)
03:52PM 40.2217 -73.1050 223° Southwest 431 496 34,000  Level FlightAware ADS-B (KSNC)
03:52PM 40.1906 -73.1430 224° Southwest 426 490 34,000  Level FlightAware ADS-B (KWWD)
03:52PM 40.1741 -73.1631 224° Southwest 426 490 34,000  Level FlightAware ADS-B (KWWD)
03:53PM 40.1642 -73.1753 224° Southwest 427 491 34,000  Level FlightAware ADS-B (KWWD)
03:53PM 40.1317 -73.2148 224° Southwest 427 491 34,000  Level FlightAware ADS-B (KWWD)
03:53PM 40.1199 -73.2292 224° Southwest 427 491 34,000  Level FlightAware ADS-B (KWWD)
03:54PM 40.0721 -73.2871 222° Southwest 433 498 34,000  Level FlightAware ADS-B (KSNC)
03:54PM 40.0294 -73.3347 220° Southwest 431 496 34,000  Level FlightAware ADS-B (KSNC)
03:55PM 39.9744 -73.3953 221° Southwest 424 488 34,000  Level FlightAware ADS-B (KWWD)
03:55PM 39.9269 -73.4483 221° Southwest 430 495 34,000  Level FlightAware ADS-B (KPHL)
03:56PM 39.8775 -73.5034 221° Southwest 432 497 34,000  Level FlightAware ADS-B (KSNC)
03:56PM 39.8255 -73.5613 221° Southwest 425 489 34,000  Level FlightAware ADS-B (KWWD)
03:57PM 39.7793 -73.6127 221° Southwest 425 489 34,000  Level FlightAware ADS-B (KWWD)
03:57PM 39.7301 -73.6672 221° Southwest 425 489 34,000  Level FlightAware ADS-B (KWWD)
03:58PM 39.6843 -73.7180 221° Southwest 425 489 34,000  Level FlightAware ADS-B (KWWD)
03:58PM 39.6317 -73.7762 221° Southwest 431 496 34,000  Level FlightAware ADS-B (KPHL)
03:59PM 39.5806 -73.8325 221° Southwest 425 489 34,000  Level FlightAware ADS-B (KWWD)
04:00PM 39.5209 -73.8981 220° Southwest 432 497 34,000  Level FlightAware ADS-B (KOQN)
04:00PM 39.5183 -73.9010 220° Southwest 432 497 34,000  Level FlightAware ADS-B (KOQN)
04:00PM 39.4712 -73.9528 221° Southwest 426 490 34,000  Level FlightAware ADS-B (KWWD)
04:00PM 39.4562 -73.9692 220° Southwest 433 498 34,000  Level FlightAware ADS-B (KSNC)
04:01PM 39.4247 -74.0038 220° Southwest 433 498 34,000  Level FlightAware ADS-B (KPHL)
04:01PM 39.4048 -74.0256 220° Southwest 433 498 34,000  Level FlightAware ADS-B (KSNC)
04:01PM 39.4006 -74.0302 220° Southwest 434 499 34,000  Level FlightAware ADS-B (KPHL)
04:02PM 39.3341 -74.1029 221° Southwest 428 493 34,000  Level FlightAware ADS-B (KWWD)
04:02PM 39.2737 -74.1688 221° Southwest 426 490 34,000  Level FlightAware ADS-B (KWWD)
04:03PM 39.2120 -74.2358 221° Southwest 426 490 34,000  Level FlightAware ADS-B (KWWD)
04:04PM 39.1498 -74.3034 221° Southwest 424 488 34,000  Level FlightAware ADS-B (KWWD)
04:04PM 39.1043 -74.3527 221° Southwest 425 489 34,000  Level FlightAware ADS-B (KWWD)
04:05PM 39.0432 -74.4188 221° Southwest 425 489 34,000  Level FlightAware ADS-B (KWWD)
04:05PM 38.9977 -74.4677 221° Southwest 423 487 34,000  Level FlightAware ADS-B (KWWD)
04:06PM 38.9445 -74.5251 221° Southwest 423 487 34,000  Level FlightAware ADS-B (KWWD)
04:07PM 38.8559 -74.6201 221° Southwest 424 488 34,000  Level FlightAware ADS-B (KWWD)
04:07PM 38.8021 -74.6776 220° Southwest 422 486 34,000  Level FlightAware ADS-B (KWWD)
04:08PM 38.7574 -74.7253 220° Southwest 421 484 34,000  Level FlightAware ADS-B
04:09PM 38.6952 -74.7917 220° Southwest 421 484 34,000  Level FlightAware ADS-B (KWWD)
04:09PM 38.6441 -74.8461 220° Southwest 419 482 34,000  Level FlightAware ADS-B (KWWD)
04:10PM 38.5926 -74.9008 220° Southwest 419 482 34,000  Level FlightAware ADS-B (KWWD)
04:10PM 38.5471 -74.9490 220° Southwest 420 483 34,000  Level FlightAware ADS-B (KWWD)
04:11PM 38.5363 -74.9605 220° Southwest 420 483 34,000  Level FlightAware ADS-B (KSBY)
04:12PM 38.4271 -75.0759 220° Southwest 421 484 34,000  Level FlightAware ADS-B (KWWD)
04:12PM 38.3809 -75.1246 220° Southwest 422 486 34,000  Level FlightAware ADS-B (KWWD)
04:13PM 38.3450 -75.1623 220° Southwest 422 486 34,000  Level FlightAware ADS-B (KSBY)
04:13PM 38.2858 -75.2246 220° Southwest 421 484 34,000  Level FlightAware ADS-B (KSBY)
04:14PM 38.2346 -75.2782 220° Southwest 421 484 34,000  Level FlightAware ADS-B (KSBY)
04:14PM 38.2043 -75.3094 216° Southwest 422 486 34,000  Level FlightAware ADS-B (KWWD)
04:14PM 38.2009 -75.3125 213° Southwest 424 488 34,000  Level FlightAware ADS-B (KPHL)
04:15PM 38.1297 -75.3639 209° Southwest 427 491 34,000  Level FlightAware ADS-B (KSBY)
04:15PM 38.0743 -75.4024 209° Southwest 421 484 34,000  Level FlightAware ADS-B (KWWD)
04:16PM 38.0120 -75.4458 210° Southwest 424 488 34,000  Level FlightAware ADS-B (KWWD)
04:17PM 37.9568 -75.4846 210° Southwest 425 489 34,000  Level FlightAware ADS-B (KWWD)
04:17PM 37.8943 -75.5282 209° Southwest 433 498 34,000  Level FlightAware ADS-B (KSBY)
04:18PM 37.8388 -75.5669 209° Southwest 434 499 34,000  Level FlightAware ADS-B (KSBY)
04:18PM 37.7919 -75.5996 209° Southwest 436 502 34,000  Level FlightAware ADS-B (KSBY)
04:19PM 37.7174 -75.6514 209° Southwest 435 501 34,000  Level FlightAware ADS-B (KSBY)
04:19PM 37.6577 -75.6928 209° Southwest 427 491 34,000  Level FlightAware ADS-B (KWWD)
04:20PM 37.5887 -75.7406 209° Southwest 425 489 34,000  Level FlightAware ADS-B (KWWD)
04:21PM 37.5199 -75.7880 209° Southwest 422 486 34,000  Level FlightAware ADS-B (KWWD)
04:21PM 37.4665 -75.8249 209° Southwest 422 486 34,000  Level FlightAware ADS-B (KWWD)
04:22PM 37.4202 -75.8569 209° Southwest 422 486 34,000  Level FlightAware ADS-B (KWWD)
04:22PM 37.3625 -75.8965 209° Southwest 423 487 34,000  Level FlightAware ADS-B (KWWD)
04:23PM 37.2757 -75.9559 209° Southwest 422 486 34,000  Level FlightAware ADS-B (KWWD)
04:24PM 37.2053 -76.0041 209° Southwest 427 491 34,000  Level FlightAware ADS-B (KWWD)
04:24PM 37.1497 -76.0421 209° Southwest 425 489 34,000  Level FlightAware ADS-B (KWWD)
04:25PM 37.0971 -76.0779 209° Southwest 424 488 34,000  Level FlightAware ADS-B (KWWD)
04:25PM 37.0425 -76.1151 209° Southwest 426 490 34,000  Level FlightAware ADS-B (KWWD)
04:26PM 36.9798 -76.1576 209° Southwest 420 483 34,000  Level FlightAware ADS-B (KWWD)
04:26PM 36.9287 -76.1923 209° Southwest 421 484 34,000  Level FlightAware ADS-B (KWWD)
04:27PM 36.8649 -76.2355 209° Southwest 421 484 34,000  Level FlightAware ADS-B (KWWD)
04:28PM 36.7521 -76.3117 209° Southwest 423 487 34,000  Level FlightAware ADS-B (KWWD)
04:31PM 36.9076 -76.2065 209° Southwest 427 491 34,000  Level FlightAware ADS-B
04:32PM 36.3628 -76.5747 209° Southwest 436 502 34,000  Level Washington Center
04:33PM 36.2578 -76.6431 208° Southwest 436 502 34,000  Level Washington Center
04:34PM 36.1528 -76.7111 208° Southwest 436 502 34,000  Level Washington Center
04:35PM 36.0481 -76.7789 208° Southwest 436 502 34,000  Level Washington Center
04:36PM 35.9428 -76.8492 208° Southwest 436 502 34,000  Level Washington Center
04:37PM 35.8358 -76.9192 208° Southwest 441 507 34,000  Level Washington Center
04:38PM 35.7306 -76.9892 208° Southwest 441 507 34,000  Level Washington Center
04:39PM 35.6464 -77.0439 208° Southwest 441 507 34,000  Level Washington Center
04:40PM 35.5203 -77.1283 209° Southwest 431 496 34,000  Level Washington Center
04:41PM 35.4131 -77.1978 208° Southwest 437 503 34,000  Level Washington Center
04:42PM 35.3036 -77.2667 207° Southwest 443 510 34,000  Level Washington Center
04:43PM 35.1839 -77.3075 196° South 443 510 34,000  Level Washington Center
04:44PM 35.0664 -77.3506 197° South 443 510 34,000  Level Washington Center
04:45PM 34.9469 -77.3936 196° South 448 516 34,000  Level Washington Center
04:46PM 34.8272 -77.4417 198° South 448 516 34,000  Level Washington Center
04:47PM 34.7203 -77.4822 197° South 448 516 34,000  Level Washington Center
04:48PM 34.6006 -77.5247 196° South 448 516 34,000  Level Washington Center
04:49PM 34.4831 -77.5697 198° South 448 516 34,000  Level Washington Center
04:50PM 34.3633 -77.6122 196° South 443 510 34,000  Level Washington Center
04:51PM 34.2394 -77.6569 197° South 443 510 34,000  Level Washington Center
04:52PM 34.1178 -77.7017 197° South 448 516 34,000  Level Washington Center
04:52PM 34.0356 -77.7331 198° South 448 516 34,000  Level Jacksonville Center
04:53PM 33.9142 -77.7778 197° South 448 516 34,000  Level Jacksonville Center
04:54PM 33.7969 -77.8169 196° South 453 521 34,000  Level Jacksonville Center
04:55PM 33.6736 -77.8617 197° South 453 521 34,000  Level Jacksonville Center
04:56PM 33.5400 -77.9117 197° South 453 521 34,000  Level Jacksonville Center
04:57PM 33.4206 -77.9531 196° South 453 521 34,000  Level Jacksonville Center
04:58PM 33.3011 -77.9969 197° South 453 521 34,000  Level Jacksonville Center
04:59PM 33.1797 -78.0408 197° South 453 521 34,000  Level Jacksonville Center
05:00PM 33.0603 -78.0844 197° South 453 521 34,000  Level Jacksonville Center
05:01PM 32.9386 -78.1233 195° South 453 521 34,000  Level Jacksonville Center
05:02PM 32.8172 -78.1692 198° South 453 521 34,000  Level Jacksonville Center
05:03PM 32.6981 -78.2150 198° South 453 521 34,000  Level Jacksonville Center
05:04PM 32.5761 -78.2483 193° South 453 521 34,000  Level Jacksonville Center
05:05PM 32.4567 -78.2964 199° South 453 521 34,000  Level Jacksonville Center
05:06PM 32.3456 -78.3386 198° South 453 521 34,000  Level Jacksonville Center
05:07PM 32.2239 -78.3792 196° South 453 521 34,000  Level Jacksonville Center
05:08PM 32.1022 -78.4244 197° South 453 521 34,000  Level Jacksonville Center
05:09PM 31.9806 -78.4669 197° South 453 521 34,000  Level Jacksonville Center
05:10PM 31.8608 -78.5044 195° South 453 521 34,000  Level Jacksonville Center
05:11PM 31.7372 -78.5494 197° South 459 528 34,000  Level Jacksonville Center
05:12PM 31.6031 -78.5947 196° South 459 528 34,000  Level Jacksonville Center
05:13PM 31.4833 -78.6369 197° South 449 517 34,000  Level Jacksonville Center
05:14PM 31.3617 -78.6789 196° South 461 531 34,000  Level Jacksonville Center
05:15PM 31.2400 -78.7208 196° South 455 524 34,000  Level Jacksonville Center
05:16PM 31.1183 -78.7675 198° South 455 524 34,000  Level Jacksonville Center
05:17PM 31.0086 -78.7989 194° South 455 524 34,000  Level Jacksonville Center
05:18PM 30.8889 -78.8428 197° South 455 524 34,000  Level Jacksonville Center
05:19PM 30.7669 -78.8819 195° South 455 524 34,000  Level Jacksonville Center
05:20PM 30.6431 -78.9208 195° South 455 524 34,000  Level Jacksonville Center
05:22PM 30.4814 -78.9781 197° South 450 518 34,000  Level Miami Center
05:23PM 30.3578 -79.0214 197° South 450 518 34,000  Level Miami Center
05:24PM 30.2422 -79.0717 201° Southwest 450 518 34,000  Level Miami Center
05:25PM 30.1269 -79.1222 201° Southwest 455 524 34,000  Level Miami Center
05:26PM 30.0114 -79.1747 201° Southwest 455 524 34,000  Level Miami Center
05:27PM 29.9042 -79.2275 203° Southwest 448 516 34,000  Level Miami Center
05:28PM 29.7844 -79.2750 199° South 453 521 34,000  Level Miami Center
05:29PM 29.6669 -79.3275 201° Southwest 453 521 34,000 300 Level Miami Center
05:30PM 29.5492 -79.3772 200° South 453 521 34,700 960 Climbing Miami Center
05:31PM 29.4375 -79.4367 205° Southwest 453 521 36,000 120 Climbing Miami Center
05:37PM 28.6867 -79.7133 198° South 455 524 36,000  Level FlightAware ADS-B (KMCO)
05:39PM 28.4284 -79.8063 198° South 453 521 36,000  Level FlightAware ADS-B (KMCO)
05:40PM 28.3459 -79.8359 198° South 454 522 36,000  Level FlightAware ADS-B (KMCO)
05:41PM 28.2329 -79.8764 198° South 456 525 36,000  Level FlightAware ADS-B (KMCO)
05:41PM 28.1546 -79.9044 198° South 456 525 36,000  Level FlightAware ADS-B (KMCO)
05:42PM 28.0467 -79.9429 198° South 457 526 36,000  Level FlightAware ADS-B (KMCO)
05:43PM 27.9891 -79.9634 198° South 455 524 36,000  Level FlightAware ADS-B (KMCO)
05:44PM 27.8614 -80.0089 198° South 456 525 36,000  Level FlightAware ADS-B (KMCO)
05:44PM 27.7852 -80.0359 198° South 454 522 36,000  Level FlightAware ADS-B (KMCO)
05:45PM 27.7043 -80.0646 197° South 454 522 36,000  Level FlightAware ADS-B (KMCO)
05:46PM 27.6259 -80.0922 197° South 454 522 36,000  Level FlightAware ADS-B (KMCO)
05:46PM 27.5467 -80.1203 198° South 455 524 36,000  Level FlightAware ADS-B (KMCO)
05:47PM 27.4612 -80.1504 197° South 455 524 36,000  Level FlightAware ADS-B (KMCO)
05:48PM 27.3747 -80.1809 198° South 455 524 36,000  Level FlightAware ADS-B (RJTF)
05:49PM 27.3459 -80.1911 197° South 458 527 36,000  Level FlightAware ADS-B (KMCO)
05:49PM 27.2854 -80.2123 198° South 456 525 36,000  Level FlightAware ADS-B (RJTF)
05:50PM 27.1234 -80.2691 197° South 461 531 36,000  Level FlightAware ADS-B (RJTF)
05:51PM 27.0287 -80.3022 197° South 463 533 36,000  Level FlightAware ADS-B (RJTF)
05:51PM 26.9277 -80.3375 197° South 458 527 36,000  Level FlightAware ADS-B (RJTF)
05:52PM 26.8660 -80.3590 197° South 458 527 36,000  Level FlightAware ADS-B (RJTF)
05:52PM 26.8076 -80.3793 197° South 453 521 36,000  Level FlightAware ADS-B (RJTF)
05:53PM 26.8033 -80.3808 198° South 453 521 36,000  Level FlightAware ADS-B (KMCO)
05:53PM 26.7212 -80.4094 197° South 455 524 36,000  Level FlightAware ADS-B (RJTF)
05:54PM 26.6637 -80.4294 197° South 455 524 36,000  Level FlightAware ADS-B (RJTF)
05:54PM 26.6039 -80.4501 197° South 456 525 36,000  Level FlightAware ADS-B (RJTF)
05:55PM 26.5073 -80.4835 197° South 458 527 36,000  Level FlightAware ADS-B (RJTF)
05:55PM 26.4585 -80.5004 197° South 458 527 36,000  Level FlightAware ADS-B (RJTF)
05:56PM 26.3905 -80.5239 197° South 459 528 36,000  Level FlightAware ADS-B (KMCO)
05:57PM 26.2929 -80.5577 197° South 458 527 36,000  Level FlightAware ADS-B (KMCO)
05:57PM 26.2208 -80.5825 197° South 456 525 36,000  Level FlightAware ADS-B (KMCO)
05:58PM 26.3322 -80.5441 197° South 454 522 36,000  Level FlightAware ADS-B (RJTF)
05:59PM 26.0481 -80.6422 197° South 447 514 36,000 -360 Level Miami Center
06:00PM 25.9281 -80.6847 198° South 447 514 35,500 -780 Descending Miami Center
06:01PM 25.8078 -80.7292 198° South 452 520 34,500 -1,020 Descending Miami Center
06:02PM 25.6961 -80.7672 197° South 464 534 33,500 -960 Descending Miami Center
06:03PM 25.5739 -80.8092 197° South 469 540 32,600 -960 Descending Miami Center
06:04PM 25.4514 -80.8514 197° South 463 533 31,600 -840 Descending Miami Center
06:05PM 25.3272 -80.8933 197° South 463 533 31,000 -300 Descending Miami Center
06:06PM 25.2072 -80.9283 195° South 463 533 31,000  Level Miami Center
06:07PM 25.0789 -80.9583 192° South 463 533 31,000  Level Miami Center
06:08PM 24.9569 -80.9886 193° South 458 527 31,000 -420 Level Miami Center
06:09PM 24.8350 -81.0167 192° South 453 521 30,200 -900 Descending Miami Center
06:10PM 24.7192 -81.0469 193° South 447 514 29,200 -1,200 Descending Miami Center
06:11PM 24.6036 -81.0750 192° South 437 503 27,800 -1,680 Descending Miami Center
06:12PM 24.4878 -81.1031 192° South 431 496 25,900 -1,860 Descending Miami Center
06:13PM 24.3764 -81.1314 193° South 426 490 24,100 -1,800 Descending Miami Center
06:14PM 24.2672 -81.1550 191° South 413 475 22,400 -1,560 Descending Miami Center
06:15PM 24.1619 -81.1808 193° South 402 463 21,000 -840 Descending Miami Center
06:16PM 24.0653 -81.2047 193° South 382 440 20,800 -240 Descending Miami Center
06:18PM 23.8999 -81.3280 225° Southwest  Level FlightAware Approximate
06:25PM 23.3155 -82.0070 228° Southwest  Level FlightAware Approximate
06:26PM 23.2332 -82.1050 226° Southwest  Level FlightAware Approximate
06:27PM 23.1488 -82.2008 212° Southwest  Level FlightAware Approximate
06:28PM 23.0644 -82.2919 231° Southwest  Level FlightAware Approximate
06:29PM 22.9797 -82.3869 223° Southwest  Level FlightAware Approximate
06:30PM 22.9667 -82.4000 223° Southwest  Level FlightAware Approximate
06:31PM 22.9891 -82.4091 223° Southwest  Level Estimated
06:32PM 22.9891 -82.4091 223° Southwest  Level Estimated
06:33PM 22.9891 -82.4091 223° Southwest  Level Estimated
06:34PM 22.9891 -82.4091 223° Southwest  Level Estimated
06:35PM 22.9891 -82.4091 223° Southwest  Level Estimated
06:36PM 22.9891 -82.4091 223° Southwest  Level Estimated
06:37PM 22.9891 -82.4091 223° Southwest  Level Estimated
06:38PM 22.9891 -82.4091 223° Southwest  Level Estimated
06:39PM 22.9891 -82.4091 223° Southwest  Level Estimated
06:40PM 22.9891 -82.4091 223° Southwest  Level Estimated
06:41PM 22.9891 -82.4091 223° Southwest  Level Estimated
06:42PM 22.9891 -82.4091 223° Southwest  Level Estimated
06:43PM 22.9891 -82.4091 223° Southwest  Level Estimated
06:44PM 22.9891 -82.4091 223° Southwest  Level Estimated
06:45PM 22.9891 -82.4091 223° Southwest  Level Estimated
06:46PM 22.9891 -82.4091 223° Southwest  Level Estimated
06:47PM 22.9891 -82.4091 223° Southwest  Level Estimated
06:48PM 22.9891 -82.4091 223° Southwest  Level Estimated
06:49PM 22.9891 -82.4091 223° Southwest  Level Estimated
06:50PM 22.9891 -82.4091 223° Southwest  Level Estimated
06:51PM 22.9891 -82.4091 223° Southwest  Level Estimated